sensor_id;sensor_type;location;lat;lon;timestamp;pressure;altitude;pressure_sealevel;temperature;humidity
11987;BME280;6053;51.382;6.768;2024-03-08T00:01:26;101622.91;;;11.33;51.51
11987;BME280;6053;51.382;6.768;2024-03-08T00:03:53;101615.63;;;11.46;51.03
11987;BME280;6053;51.382;6.768;2024-03-08T00:06:23;101609.41;;;11.68;50.49
11987;BME280;6053;51.382;6.768;2024-03-08T00:08:51;101608.31;;;11.62;50.54
11987;BME280;6053;51.382;6.768;2024-03-08T00:11:22;101610.78;;;11.80;50.18
11987;BME280;6053;51.382;6.768;2024-03-08T00:13:52;101610.09;;;11.72;49.59
11987;BME280;6053;51.382;6.768;2024-03-08T00:16:32;101612.41;;;11.77;50.16
11987;BME280;6053;51.382;6.768;2024-03-08T00:19:02;101604.53;;;11.76;49.81
11987;BME280;6053;51.382;6.768;2024-03-08T00:21:29;101601.50;;;11.67;50.27
11987;BME280;6053;51.382;6.768;2024-03-08T00:24:01;101599.91;;;11.13;51.01
11987;BME280;6053;51.382;6.768;2024-03-08T00:26:29;101593.44;;;11.23;50.12
11987;BME280;6053;51.382;6.768;2024-03-08T00:29:06;101592.25;;;11.50;50.89
11987;BME280;6053;51.382;6.768;2024-03-08T00:31:34;101591.09;;;11.48;50.65
11987;BME280;6053;51.382;6.768;2024-03-08T00:34:07;101592.78;;;11.42;50.83
11987;BME280;6053;51.382;6.768;2024-03-08T00:36:38;101599.03;;;11.46;50.63
11987;BME280;6053;51.382;6.768;2024-03-08T00:39:05;101598.13;;;11.56;50.39
11987;BME280;6053;51.382;6.768;2024-03-08T00:41:33;101599.59;;;11.64;50.19
11987;BME280;6053;51.382;6.768;2024-03-08T00:44:04;101606.31;;;11.63;49.92
11987;BME280;6053;51.382;6.768;2024-03-08T00:46:40;101595.97;;;11.67;50.07
11987;BME280;6053;51.382;6.768;2024-03-08T00:49:09;101594.81;;;11.64;50.03
11987;BME280;6053;51.382;6.768;2024-03-08T00:51:42;101587.72;;;11.63;49.98
11987;BME280;6053;51.382;6.768;2024-03-08T00:54:10;101579.53;;;11.56;50.16
11987;BME280;6053;51.382;6.768;2024-03-08T00:56:52;101584.59;;;11.35;50.74
11987;BME280;6053;51.382;6.768;2024-03-08T00:59:22;101578.94;;;11.42;50.45
11987;BME280;6053;51.382;6.768;2024-03-08T01:01:59;101585.72;;;11.38;50.46
11987;BME280;6053;51.382;6.768;2024-03-08T01:04:26;101578.63;;;11.37;50.43
11987;BME280;6053;51.382;6.768;2024-03-08T01:07:02;101575.63;;;11.54;50.15
11987;BME280;6053;51.382;6.768;2024-03-08T01:09:29;101578.00;;;11.52;49.56
11987;BME280;6053;51.382;6.768;2024-03-08T01:11:57;101569.91;;;11.12;50.74
11987;BME280;6053;51.382;6.768;2024-03-08T01:14:27;101564.19;;;11.26;50.60
11987;BME280;6053;51.382;6.768;2024-03-08T01:17:13;101559.44;;;11.26;50.16
11987;BME280;6053;51.382;6.768;2024-03-08T01:19:40;101559.41;;;10.70;50.40
11987;BME280;6053;51.382;6.768;2024-03-08T01:22:08;101560.25;;;11.23;50.79
11987;BME280;6053;51.382;6.768;2024-03-08T01:24:36;101552.13;;;11.39;50.02
11987;BME280;6053;51.382;6.768;2024-03-08T01:27:07;101547.44;;;11.36;50.37
11987;BME280;6053;51.382;6.768;2024-03-08T01:29:45;101542.63;;;11.14;50.81
11987;BME280;6053;51.382;6.768;2024-03-08T01:32:15;101543.25;;;11.25;50.06
11987;BME280;6053;51.382;6.768;2024-03-08T01:34:43;101542.09;;;10.66;51.80
11987;BME280;6053;51.382;6.768;2024-03-08T01:37:11;101531.09;;;10.63;48.56
11987;BME280;6053;51.382;6.768;2024-03-08T01:39:41;101532.78;;;10.83;51.64
11987;BME280;6053;51.382;6.768;2024-03-08T01:42:09;101530.91;;;11.06;51.17
11987;BME280;6053;51.382;6.768;2024-03-08T01:44:38;101519.00;;;10.79;50.70
11987;BME280;6053;51.382;6.768;2024-03-08T01:47:06;101523.06;;;11.01;50.99
11987;BME280;6053;51.382;6.768;2024-03-08T01:49:38;101518.03;;;10.93;50.77
11987;BME280;6053;51.382;6.768;2024-03-08T01:52:06;101521.19;;;10.95;50.98
11987;BME280;6053;51.382;6.768;2024-03-08T01:54:34;101519.00;;;10.79;50.86
11987;BME280;6053;51.382;6.768;2024-03-08T01:57:02;101521.56;;;10.97;50.89
11987;BME280;6053;51.382;6.768;2024-03-08T01:59:32;101520.22;;;11.05;50.85
11987;BME280;6053;51.382;6.768;2024-03-08T02:02:01;101517.56;;;11.24;50.25
11987;BME280;6053;51.382;6.768;2024-03-08T02:04:32;101511.72;;;11.22;50.43
11987;BME280;6053;51.382;6.768;2024-03-08T02:07:00;101513.13;;;11.30;50.07
11987;BME280;6053;51.382;6.768;2024-03-08T02:09:29;101514.91;;;10.61;51.50
11987;BME280;6053;51.382;6.768;2024-03-08T02:11:58;101512.00;;;11.01;50.90
11987;BME280;6053;51.382;6.768;2024-03-08T02:14:27;101513.94;;;11.04;50.65
11987;BME280;6053;51.382;6.768;2024-03-08T02:17:02;101506.22;;;11.19;50.35
11987;BME280;6053;51.382;6.768;2024-03-08T02:19:31;101507.06;;;11.16;50.32
11987;BME280;6053;51.382;6.768;2024-03-08T02:22:01;101498.66;;;11.23;50.02
11987;BME280;6053;51.382;6.768;2024-03-08T02:24:32;101493.06;;;11.26;49.91
11987;BME280;6053;51.382;6.768;2024-03-08T02:27:04;101493.84;;;11.27;49.92
11987;BME280;6053;51.382;6.768;2024-03-08T02:29:35;101493.13;;;11.23;49.89
11987;BME280;6053;51.382;6.768;2024-03-08T02:32:05;101488.41;;;11.20;50.09
11987;BME280;6053;51.382;6.768;2024-03-08T02:34:32;101483.19;;;11.25;49.66
11987;BME280;6053;51.382;6.768;2024-03-08T02:37:05;101486.41;;;11.24;49.81
11987;BME280;6053;51.382;6.768;2024-03-08T02:39:33;101479.72;;;11.21;49.89
11987;BME280;6053;51.382;6.768;2024-03-08T02:42:01;101480.50;;;11.22;49.84
11987;BME280;6053;51.382;6.768;2024-03-08T02:44:28;101475.88;;;11.15;49.98
11987;BME280;6053;51.382;6.768;2024-03-08T02:46:56;101479.53;;;11.09;50.20
11987;BME280;6053;51.382;6.768;2024-03-08T02:49:29;101472.78;;;11.10;50.24
11987;BME280;6053;51.382;6.768;2024-03-08T02:51:58;101475.94;;;11.08;50.17
11987;BME280;6053;51.382;6.768;2024-03-08T02:54:27;101469.59;;;11.11;49.95
11987;BME280;6053;51.382;6.768;2024-03-08T02:56:55;101459.38;;;11.08;49.92
11987;BME280;6053;51.382;6.768;2024-03-08T02:59:26;101453.19;;;11.01;50.07
11987;BME280;6053;51.382;6.768;2024-03-08T03:01:57;101462.66;;;11.00;50.12
11987;BME280;6053;51.382;6.768;2024-03-08T03:04:26;101468.94;;;11.04;49.96
11987;BME280;6053;51.382;6.768;2024-03-08T03:06:54;101454.06;;;10.94;50.12
11987;BME280;6053;51.382;6.768;2024-03-08T03:09:22;101455.63;;;10.95;50.32
11987;BME280;6053;51.382;6.768;2024-03-08T03:11:55;101444.94;;;10.97;49.96
11987;BME280;6053;51.382;6.768;2024-03-08T03:14:23;101448.47;;;10.98;50.07
11987;BME280;6053;51.382;6.768;2024-03-08T03:16:57;101444.13;;;11.00;50.02
11987;BME280;6053;51.382;6.768;2024-03-08T03:19:25;101449.34;;;10.95;50.16
11987;BME280;6053;51.382;6.768;2024-03-08T03:21:55;101449.00;;;10.89;50.09
11987;BME280;6053;51.382;6.768;2024-03-08T03:24:26;101451.06;;;10.85;50.32
11987;BME280;6053;51.382;6.768;2024-03-08T03:26:59;101448.19;;;10.92;50.03
11987;BME280;6053;51.382;6.768;2024-03-08T03:29:40;101447.00;;;10.93;49.97
11987;BME280;6053;51.382;6.768;2024-03-08T03:32:12;101435.50;;;10.95;49.97
11987;BME280;6053;51.382;6.768;2024-03-08T03:34:47;101443.97;;;10.84;50.08
11987;BME280;6053;51.382;6.768;2024-03-08T03:37:15;101440.34;;;10.87;50.12
11987;BME280;6053;51.382;6.768;2024-03-08T03:39:46;101428.47;;;10.90;49.92
11987;BME280;6053;51.382;6.768;2024-03-08T03:42:19;101434.59;;;10.78;50.15
11987;BME280;6053;51.382;6.768;2024-03-08T03:44:50;101436.22;;;10.72;50.38
11987;BME280;6053;51.382;6.768;2024-03-08T03:47:19;101425.56;;;10.74;50.03
11987;BME280;6053;51.382;6.768;2024-03-08T03:49:48;101419.50;;;10.83;49.89
11987;BME280;6053;51.382;6.768;2024-03-08T03:52:15;101423.06;;;10.83;50.04
11987;BME280;6053;51.382;6.768;2024-03-08T03:54:44;101424.25;;;10.82;49.98
11987;BME280;6053;51.382;6.768;2024-03-08T03:57:18;101425.88;;;10.80;50.15
11987;BME280;6053;51.382;6.768;2024-03-08T03:59:50;101422.75;;;10.78;50.03
11987;BME280;6053;51.382;6.768;2024-03-08T04:02:18;101419.88;;;10.85;49.88
11987;BME280;6053;51.382;6.768;2024-03-08T04:04:51;101421.81;;;10.88;49.74
11987;BME280;6053;51.382;6.768;2024-03-08T04:07:19;101420.34;;;10.80;49.91
11987;BME280;6053;51.382;6.768;2024-03-08T04:09:46;101408.91;;;10.78;49.94
11987;BME280;6053;51.382;6.768;2024-03-08T04:12:21;101418.00;;;10.78;49.83
11987;BME280;6053;51.382;6.768;2024-03-08T04:14:52;101410.06;;;10.80;49.89
11987;BME280;6053;51.382;6.768;2024-03-08T04:17:23;101416.56;;;10.70;50.01
11987;BME280;6053;51.382;6.768;2024-03-08T04:19:52;101408.22;;;10.74;49.92
11987;BME280;6053;51.382;6.768;2024-03-08T04:22:21;101406.00;;;10.62;50.21
11987;BME280;6053;51.382;6.768;2024-03-08T04:24:50;101407.16;;;10.65;49.82
11987;BME280;6053;51.382;6.768;2024-03-08T04:27:24;101400.53;;;10.29;50.35
11987;BME280;6053;51.382;6.768;2024-03-08T04:29:52;101405.91;;;10.39;50.69
11987;BME280;6053;51.382;6.768;2024-03-08T04:32:20;101405.09;;;10.42;50.80
11987;BME280;6053;51.382;6.768;2024-03-08T04:34:47;101403.03;;;10.50;50.60
11987;BME280;6053;51.382;6.768;2024-03-08T04:37:16;101400.59;;;10.25;50.62
11987;BME280;6053;51.382;6.768;2024-03-08T04:39:45;101389.94;;;10.27;51.05
11987;BME280;6053;51.382;6.768;2024-03-08T04:42:18;101395.69;;;10.40;50.04
11987;BME280;6053;51.382;6.768;2024-03-08T04:44:47;101395.47;;;9.90;49.77
11987;BME280;6053;51.382;6.768;2024-03-08T04:47:15;101395.88;;;10.26;51.06
11987;BME280;6053;51.382;6.768;2024-03-08T04:49:48;101383.75;;;10.46;50.33
11987;BME280;6053;51.382;6.768;2024-03-08T04:52:18;101389.72;;;10.41;50.55
11987;BME280;6053;51.382;6.768;2024-03-08T04:54:46;101386.09;;;10.48;50.27
11987;BME280;6053;51.382;6.768;2024-03-08T04:57:14;101380.22;;;10.46;50.22
11987;BME280;6053;51.382;6.768;2024-03-08T04:59:48;101383.72;;;10.50;50.12
11987;BME280;6053;51.382;6.768;2024-03-08T05:02:18;101375.88;;;10.45;50.06
11987;BME280;6053;51.382;6.768;2024-03-08T05:04:46;101376.63;;;10.49;50.28
11987;BME280;6053;51.382;6.768;2024-03-08T05:07:14;101375.47;;;10.46;50.11
11987;BME280;6053;51.382;6.768;2024-03-08T05:09:42;101370.34;;;10.45;50.24
11987;BME280;6053;51.382;6.768;2024-03-08T05:12:10;101369.91;;;10.50;50.04
11987;BME280;6053;51.382;6.768;2024-03-08T05:14:42;101372.19;;;10.55;49.87
11987;BME280;6053;51.382;6.768;2024-03-08T05:17:13;101361.19;;;10.51;49.99
11987;BME280;6053;51.382;6.768;2024-03-08T05:19:43;101365.56;;;10.49;49.98
11987;BME280;6053;51.382;6.768;2024-03-08T05:22:12;101365.19;;;10.47;49.93
11987;BME280;6053;51.382;6.768;2024-03-08T05:24:40;101354.97;;;10.44;49.99
11987;BME280;6053;51.382;6.768;2024-03-08T05:27:10;101356.91;;;10.47;50.05
11987;BME280;6053;51.382;6.768;2024-03-08T05:29:37;101354.53;;;10.49;49.75
11987;BME280;6053;51.382;6.768;2024-03-08T05:32:10;101352.59;;;10.46;49.96
11987;BME280;6053;51.382;6.768;2024-03-08T05:34:39;101358.59;;;10.41;50.12
11987;BME280;6053;51.382;6.768;2024-03-08T05:39:36;101357.84;;;10.37;49.88
11987;BME280;6053;51.382;6.768;2024-03-08T05:42:04;101357.84;;;10.37;49.84
11987;BME280;6053;51.382;6.768;2024-03-08T05:44:34;101349.94;;;10.39;50.08
11987;BME280;6053;51.382;6.768;2024-03-08T05:47:05;101346.84;;;10.33;50.00
11987;BME280;6053;51.382;6.768;2024-03-08T05:49:34;101354.75;;;10.35;49.93
11987;BME280;6053;51.382;6.768;2024-03-08T05:52:01;101336.66;;;10.30;50.13
11987;BME280;6053;51.382;6.768;2024-03-08T05:54:28;101340.63;;;10.29;50.14
11987;BME280;6053;51.382;6.768;2024-03-08T05:56:56;101350.03;;;10.32;49.96
11987;BME280;6053;51.382;6.768;2024-03-08T05:59:26;101341.75;;;10.32;49.97
11987;BME280;6053;51.382;6.768;2024-03-08T06:01:56;101340.13;;;10.34;49.96
11987;BME280;6053;51.382;6.768;2024-03-08T06:04:26;101343.31;;;10.33;50.02
11987;BME280;6053;51.382;6.768;2024-03-08T06:06:57;101331.91;;;10.31;50.02
11987;BME280;6053;51.382;6.768;2024-03-08T06:09:25;101338.22;;;10.31;49.81
11987;BME280;6053;51.382;6.768;2024-03-08T06:11:55;101330.00;;;10.28;50.03
11987;BME280;6053;51.382;6.768;2024-03-08T06:14:23;101333.16;;;10.26;50.07
11987;BME280;6053;51.382;6.768;2024-03-08T06:16:51;101328.78;;;10.29;49.98
11987;BME280;6053;51.382;6.768;2024-03-08T06:19:21;101336.59;;;10.34;49.62
11987;BME280;6053;51.382;6.768;2024-03-08T06:21:48;101326.75;;;10.33;49.76
11987;BME280;6053;51.382;6.768;2024-03-08T06:24:16;101324.75;;;10.33;49.56
11987;BME280;6053;51.382;6.768;2024-03-08T06:26:54;101323.25;;;10.29;49.64
11987;BME280;6053;51.382;6.768;2024-03-08T06:29:21;101331.53;;;10.29;49.72
11987;BME280;6053;51.382;6.768;2024-03-08T06:31:51;101322.84;;;10.30;49.75
11987;BME280;6053;51.382;6.768;2024-03-08T06:34:24;101322.00;;;10.33;49.68
11987;BME280;6053;51.382;6.768;2024-03-08T06:36:52;101326.72;;;10.36;49.48
11987;BME280;6053;51.382;6.768;2024-03-08T06:39:26;101332.22;;;10.36;49.51
11987;BME280;6053;51.382;6.768;2024-03-08T06:41:56;101329.91;;;10.35;49.51
11987;BME280;6053;51.382;6.768;2024-03-08T06:44:23;101328.63;;;10.39;49.34
11987;BME280;6053;51.382;6.768;2024-03-08T06:46:52;101328.28;;;10.37;49.47
11987;BME280;6053;51.382;6.768;2024-03-08T06:49:20;101322.38;;;10.35;49.45
11987;BME280;6053;51.382;6.768;2024-03-08T06:51:54;101332.28;;;10.33;49.68
11987;BME280;6053;51.382;6.768;2024-03-08T06:54:22;101329.94;;;10.31;49.52
11987;BME280;6053;51.382;6.768;2024-03-08T06:56:55;101330.72;;;10.32;49.63
11987;BME280;6053;51.382;6.768;2024-03-08T06:59:22;101324.75;;;10.33;49.36
11987;BME280;6053;51.382;6.768;2024-03-08T07:01:50;101324.81;;;10.30;49.66
11987;BME280;6053;51.382;6.768;2024-03-08T07:04:23;101317.72;;;10.29;49.56
11987;BME280;6053;51.382;6.768;2024-03-08T07:06:53;101320.97;;;10.24;49.52
11987;BME280;6053;51.382;6.768;2024-03-08T07:09:35;101327.00;;;10.15;49.79
11987;BME280;6053;51.382;6.768;2024-03-08T07:12:06;101318.69;;;10.19;49.77
11987;BME280;6053;51.382;6.768;2024-03-08T07:14:34;101324.66;;;10.14;49.85
11987;BME280;6053;51.382;6.768;2024-03-08T07:17:07;101322.31;;;9.79;49.42
11987;BME280;6053;51.382;6.768;2024-03-08T07:19:41;101320.31;;;9.83;50.84
11987;BME280;6053;51.382;6.768;2024-03-08T07:22:09;101326.81;;;9.66;51.11
11987;BME280;6053;51.382;6.768;2024-03-08T07:24:37;101318.94;;;9.68;50.57
11987;BME280;6053;51.382;6.768;2024-03-08T07:27:17;101324.66;;;9.84;50.38
11987;BME280;6053;51.382;6.768;2024-03-08T07:29:44;101321.00;;;9.57;47.85
11987;BME280;6053;51.382;6.768;2024-03-08T07:32:12;101321.00;;;9.57;51.16
11987;BME280;6053;51.382;6.768;2024-03-08T07:34:50;101317.47;;;9.23;51.19
11987;BME280;6053;51.382;6.768;2024-03-08T07:37:18;101316.75;;;8.72;53.64
11987;BME280;6053;51.382;6.768;2024-03-08T07:39:53;101314.97;;;9.36;49.80
11987;BME280;6053;51.382;6.768;2024-03-08T07:42:21;101311.19;;;8.83;51.95
11987;BME280;6053;51.382;6.768;2024-03-08T07:44:49;101313.47;;;8.40;52.95
11987;BME280;6053;51.382;6.768;2024-03-08T07:47:17;101312.34;;;8.82;52.74
11987;BME280;6053;51.382;6.768;2024-03-08T07:49:46;101306.75;;;8.92;53.00
11987;BME280;6053;51.382;6.768;2024-03-08T07:52:13;101302.31;;;8.58;50.20
11987;BME280;6053;51.382;6.768;2024-03-08T07:54:42;101298.50;;;8.45;54.08
11987;BME280;6053;51.382;6.768;2024-03-08T07:57:14;101294.28;;;8.77;53.23
11987;BME280;6053;51.382;6.768;2024-03-08T07:59:44;101289.00;;;9.33;52.33
11987;BME280;6053;51.382;6.768;2024-03-08T08:02:14;101285.16;;;8.36;53.69
11987;BME280;6053;51.382;6.768;2024-03-08T08:04:44;101275.22;;;8.97;53.52
11987;BME280;6053;51.382;6.768;2024-03-08T08:07:11;101286.31;;;8.46;52.70
11987;BME280;6053;51.382;6.768;2024-03-08T08:09:39;101280.59;;;9.11;51.75
11987;BME280;6053;51.382;6.768;2024-03-08T08:12:07;101274.00;;;9.34;51.98
11987;BME280;6053;51.382;6.768;2024-03-08T08:14:35;101276.31;;;8.66;48.04
11987;BME280;6053;51.382;6.768;2024-03-08T08:17:02;101267.28;;;9.02;53.24
11987;BME280;6053;51.382;6.768;2024-03-08T08:19:31;101266.44;;;9.75;51.07
11987;BME280;6053;51.382;6.768;2024-03-08T08:21:58;101263.53;;;9.56;50.17
11987;BME280;6053;51.382;6.768;2024-03-08T08:24:25;101250.13;;;9.58;48.15
11987;BME280;6053;51.382;6.768;2024-03-08T08:26:53;101251.56;;;9.36;48.96
11987;BME280;6053;51.382;6.768;2024-03-08T08:29:25;101242.97;;;8.94;48.01
11987;BME280;6053;51.382;6.768;2024-03-08T08:31:53;101243.91;;;9.50;46.51
11987;BME280;6053;51.382;6.768;2024-03-08T08:34:20;101231.88;;;10.23;47.17
11987;BME280;6053;51.382;6.768;2024-03-08T08:36:50;101226.41;;;11.08;46.72
11987;BME280;6053;51.382;6.768;2024-03-08T08:39:17;101226.47;;;10.16;44.65
11987;BME280;6053;51.382;6.768;2024-03-08T08:41:45;101212.53;;;10.69;48.08
11987;BME280;6053;51.382;6.768;2024-03-08T08:44:15;101216.88;;;10.47;43.77
11987;BME280;6053;51.382;6.768;2024-03-08T08:46:52;101211.16;;;10.12;46.11
11987;BME280;6053;51.382;6.768;2024-03-08T08:49:29;101209.84;;;10.20;47.01
11987;BME280;6053;51.382;6.768;2024-03-08T08:52:03;101199.13;;;10.90;43.10
11987;BME280;6053;51.382;6.768;2024-03-08T08:54:42;101203.50;;;9.67;46.39
11987;BME280;6053;51.382;6.768;2024-03-08T08:57:12;101206.16;;;9.14;48.68
11987;BME280;6053;51.382;6.768;2024-03-08T08:59:42;101192.63;;;9.56;49.06
11987;BME280;6053;51.382;6.768;2024-03-08T09:02:10;101194.00;;;10.24;47.40
11987;BME280;6053;51.382;6.768;2024-03-08T09:04:42;101196.19;;;10.78;46.70
11987;BME280;6053;51.382;6.768;2024-03-08T09:07:10;101185.66;;;10.92;44.96
11987;BME280;6053;51.382;6.768;2024-03-08T09:09:37;101181.84;;;11.06;43.41
11987;BME280;6053;51.382;6.768;2024-03-08T09:12:14;101183.59;;;10.77;46.09
11987;BME280;6053;51.382;6.768;2024-03-08T09:14:41;101179.19;;;10.60;45.10
11987;BME280;6053;51.382;6.768;2024-03-08T09:17:12;101169.41;;;10.33;46.51
11987;BME280;6053;51.382;6.768;2024-03-08T09:19:43;101172.56;;;10.96;44.99
11987;BME280;6053;51.382;6.768;2024-03-08T09:22:21;101167.34;;;10.60;46.01
11987;BME280;6053;51.382;6.768;2024-03-08T09:24:49;101166.63;;;10.10;44.42
11987;BME280;6053;51.382;6.768;2024-03-08T09:27:20;101169.72;;;10.58;43.93
11987;BME280;6053;51.382;6.768;2024-03-08T09:29:47;101165.13;;;10.93;46.00
11987;BME280;6053;51.382;6.768;2024-03-08T09:32:23;101158.19;;;9.94;47.41
11987;BME280;6053;51.382;6.768;2024-03-08T09:34:51;101154.72;;;10.59;45.79
11987;BME280;6053;51.382;6.768;2024-03-08T09:37:21;101154.66;;;10.62;47.12
11987;BME280;6053;51.382;6.768;2024-03-08T09:39:47;101152.97;;;10.26;45.90
11987;BME280;6053;51.382;6.768;2024-03-08T09:42:18;101149.91;;;9.94;44.95
11987;BME280;6053;51.382;6.768;2024-03-08T09:44:46;101153.34;;;10.89;47.45
11987;BME280;6053;51.382;6.768;2024-03-08T09:47:14;101144.84;;;10.15;44.51
11987;BME280;6053;51.382;6.768;2024-03-08T09:49:44;101145.69;;;10.12;45.36
11987;BME280;6053;51.382;6.768;2024-03-08T09:52:11;101136.88;;;10.63;46.94
11987;BME280;6053;51.382;6.768;2024-03-08T09:54:39;101140.22;;;9.83;47.77
11987;BME280;6053;51.382;6.768;2024-03-08T09:57:09;101120.28;;;10.44;44.93
11987;BME280;6053;51.382;6.768;2024-03-08T09:59:37;101123.16;;;10.60;46.33
11987;BME280;6053;51.382;6.768;2024-03-08T10:02:18;101116.88;;;11.52;43.92
11987;BME280;6053;51.382;6.768;2024-03-08T10:04:45;101122.78;;;10.58;44.74
11987;BME280;6053;51.382;6.768;2024-03-08T10:07:17;101112.88;;;10.99;43.94
11987;BME280;6053;51.382;6.768;2024-03-08T10:09:44;101108.69;;;11.10;44.82
11987;BME280;6053;51.382;6.768;2024-03-08T10:12:17;101092.13;;;11.45;41.79
11987;BME280;6053;51.382;6.768;2024-03-08T10:14:51;101109.78;;;11.51;43.97
11987;BME280;6053;51.382;6.768;2024-03-08T10:17:24;101096.38;;;11.50;45.16
11987;BME280;6053;51.382;6.768;2024-03-08T10:19:52;101100.56;;;11.74;43.82
11987;BME280;6053;51.382;6.768;2024-03-08T10:22:22;101094.09;;;11.45;41.80
11987;BME280;6053;51.382;6.768;2024-03-08T10:24:49;101087.59;;;11.55;40.68
11987;BME280;6053;51.382;6.768;2024-03-08T10:27:26;101075.94;;;11.28;44.22
11987;BME280;6053;51.382;6.768;2024-03-08T10:29:59;101073.09;;;11.32;41.11
11987;BME280;6053;51.382;6.768;2024-03-08T10:32:30;101076.00;;;11.76;44.97
11987;BME280;6053;51.382;6.768;2024-03-08T10:35:06;101080.13;;;11.52;43.23
11987;BME280;6053;51.382;6.768;2024-03-08T10:37:44;101075.56;;;11.26;40.09
11987;BME280;6053;51.382;6.768;2024-03-08T10:40:19;101063.25;;;11.46;40.39
11987;BME280;6053;51.382;6.768;2024-03-08T10:42:54;101061.25;;;11.31;40.07
11987;BME280;6053;51.382;6.768;2024-03-08T10:45:38;101062.63;;;11.39;40.42
11987;BME280;6053;51.382;6.768;2024-03-08T10:48:27;101063.47;;;11.20;38.88
11987;BME280;6053;51.382;6.768;2024-03-08T10:51:03;101056.63;;;11.44;42.09
11987;BME280;6053;51.382;6.768;2024-03-08T10:53:30;101051.16;;;11.41;38.02
11987;BME280;6053;51.382;6.768;2024-03-08T10:55:57;101043.94;;;11.78;41.12
11987;BME280;6053;51.382;6.768;2024-03-08T10:58:26;101035.22;;;11.64;39.33
11987;BME280;6053;51.382;6.768;2024-03-08T11:01:09;101027.75;;;12.09;40.44
11987;BME280;6053;51.382;6.768;2024-03-08T11:03:49;101025.66;;;11.49;42.71
11987;BME280;6053;51.382;6.768;2024-03-08T11:06:45;101029.09;;;11.21;40.57
11987;BME280;6053;51.382;6.768;2024-03-08T11:09:29;101022.06;;;11.68;42.61
11987;BME280;6053;51.382;6.768;2024-03-08T11:12:24;101018.63;;;11.80;39.70
11987;BME280;6053;51.382;6.768;2024-03-08T11:14:55;101012.53;;;11.85;40.50
11987;BME280;6053;51.382;6.768;2024-03-08T11:17:45;101010.31;;;11.80;41.54
11987;BME280;6053;51.382;6.768;2024-03-08T11:20:17;101002.81;;;12.09;41.23
11987;BME280;6053;51.382;6.768;2024-03-08T11:22:52;100998.53;;;11.76;39.35
11987;BME280;6053;51.382;6.768;2024-03-08T11:25:47;101002.78;;;11.64;39.69
11987;BME280;6053;51.382;6.768;2024-03-08T11:28:20;101000.28;;;11.54;39.07
11987;BME280;6053;51.382;6.768;2024-03-08T11:31:25;100978.75;;;11.45;38.98
11987;BME280;6053;51.382;6.768;2024-03-08T11:33:54;100982.63;;;11.48;38.63
11987;BME280;6053;51.382;6.768;2024-03-08T11:36:22;100993.97;;;11.69;39.85
11987;BME280;6053;51.382;6.768;2024-03-08T11:38:52;100987.47;;;11.60;41.14
11987;BME280;6053;51.382;6.768;2024-03-08T11:41:24;100984.97;;;11.81;40.13
11987;BME280;6053;51.382;6.768;2024-03-08T11:44:03;100966.50;;;11.62;37.85
11987;BME280;6053;51.382;6.768;2024-03-08T11:46:35;100954.97;;;11.48;38.20
11987;BME280;6053;51.382;6.768;2024-03-08T11:49:04;100947.81;;;11.66;38.82
11987;BME280;6053;51.382;6.768;2024-03-08T11:51:32;100952.91;;;11.36;37.73
11987;BME280;6053;51.382;6.768;2024-03-08T11:54:02;100949.72;;;11.69;37.93
11987;BME280;6053;51.382;6.768;2024-03-08T11:56:30;100943.56;;;11.78;37.82
11987;BME280;6053;51.382;6.768;2024-03-08T11:59:00;100939.75;;;11.72;38.90
11987;BME280;6053;51.382;6.768;2024-03-08T12:01:28;100936.56;;;11.57;37.97
11987;BME280;6053;51.382;6.768;2024-03-08T12:03:56;100927.91;;;11.71;38.06
11987;BME280;6053;51.382;6.768;2024-03-08T12:06:25;100925.00;;;11.62;37.99
11987;BME280;6053;51.382;6.768;2024-03-08T12:08:56;100931.63;;;11.49;38.32
11987;BME280;6053;51.382;6.768;2024-03-08T12:11:25;100918.44;;;11.41;38.66
11987;BME280;6053;51.382;6.768;2024-03-08T12:14:01;100906.84;;;11.61;38.67
11987;BME280;6053;51.382;6.768;2024-03-08T12:16:36;100915.88;;;11.78;38.26
11987;BME280;6053;51.382;6.768;2024-03-08T12:19:06;100899.31;;;11.46;38.02
11987;BME280;6053;51.382;6.768;2024-03-08T12:21:33;100900.69;;;11.70;39.84
11987;BME280;6053;51.382;6.768;2024-03-08T12:24:08;100888.00;;;12.13;38.18
11987;BME280;6053;51.382;6.768;2024-03-08T12:26:42;100889.56;;;11.86;38.20
11987;BME280;6053;51.382;6.768;2024-03-08T12:29:18;100875.53;;;11.93;38.37
11987;BME280;6053;51.382;6.768;2024-03-08T12:31:54;100888.88;;;12.10;40.03
11987;BME280;6053;51.382;6.768;2024-03-08T12:34:22;100874.38;;;12.18;38.76
11987;BME280;6053;51.382;6.768;2024-03-08T12:36:52;100872.38;;;12.07;39.86
11987;BME280;6053;51.382;6.768;2024-03-08T12:39:23;100877.31;;;11.99;39.53
11987;BME280;6053;51.382;6.768;2024-03-08T12:41:54;100869.00;;;11.99;38.67
11987;BME280;6053;51.382;6.768;2024-03-08T12:44:21;100859.63;;;12.09;38.82
11987;BME280;6053;51.382;6.768;2024-03-08T12:46:48;100850.34;;;12.16;38.42
11987;BME280;6053;51.382;6.768;2024-03-08T12:49:22;100872.47;;;12.03;38.58
11987;BME280;6053;51.382;6.768;2024-03-08T12:51:52;100842.75;;;12.32;39.02
11987;BME280;6053;51.382;6.768;2024-03-08T12:54:21;100842.28;;;12.33;38.06
11987;BME280;6053;51.382;6.768;2024-03-08T12:56:49;100835.84;;;12.12;38.95
11987;BME280;6053;51.382;6.768;2024-03-08T12:59:28;100841.47;;;12.08;39.21
11987;BME280;6053;51.382;6.768;2024-03-08T13:01:58;100836.16;;;12.01;36.99
11987;BME280;6053;51.382;6.768;2024-03-08T13:04:29;100823.69;;;12.21;39.82
11987;BME280;6053;51.382;6.768;2024-03-08T13:06:57;100818.91;;;12.34;38.62
11987;BME280;6053;51.382;6.768;2024-03-08T13:09:24;100811.59;;;12.40;38.62
11987;BME280;6053;51.382;6.768;2024-03-08T13:11:56;100811.28;;;12.76;36.34
11987;BME280;6053;51.382;6.768;2024-03-08T13:14:30;100799.97;;;12.70;37.87
11987;BME280;6053;51.382;6.768;2024-03-08T13:16:58;100809.19;;;12.67;37.19
11987;BME280;6053;51.382;6.768;2024-03-08T13:19:25;100815.25;;;12.75;38.84
11987;BME280;6053;51.382;6.768;2024-03-08T13:21:54;100804.50;;;12.52;35.40
11987;BME280;6053;51.382;6.768;2024-03-08T13:24:24;100796.78;;;12.59;38.21